createdAt,value
2023-02-14T00:00:41.580Z,89.76
2023-02-14T00:02:02.002Z,89.72
2023-02-14T00:03:03.556Z,89.91
2023-02-14T00:04:05.344Z,90.14
2023-02-14T00:05:07.226Z,90.12
2023-02-14T00:06:11.863Z,89.94
2023-02-14T00:07:13.886Z,89.92
2023-02-14T00:08:15.665Z,89.71
2023-02-14T00:09:18.764Z,89.47
2023-02-14T00:10:20.287Z,89.79
2023-02-14T00:11:21.978Z,91.06
2023-02-14T00:12:23.746Z,90.02
2023-02-14T00:13:25.204Z,90.13
2023-02-14T00:14:45.250Z,89.73
2023-02-14T00:15:46.719Z,90.43
2023-02-14T00:16:48.955Z,90.25
2023-02-14T00:17:53.979Z,89.86
2023-02-14T00:19:04.827Z,90.15
2023-02-14T00:20:06.961Z,90.18
2023-02-14T00:21:08.498Z,90.36
2023-02-14T00:22:10.075Z,90.10
2023-02-14T00:23:11.754Z,89.74
2023-02-14T00:24:22.778Z,90.19
2023-02-14T00:25:24.311Z,90.22
2023-02-14T00:26:25.816Z,90.66
2023-02-14T00:27:27.353Z,90.15
2023-02-14T00:28:28.992Z,90.72
2023-02-14T00:29:32.142Z,90.24
2023-02-14T00:30:34.280Z,90.44
2023-02-14T00:31:40.881Z,90.57
2023-02-14T00:32:42.786Z,90.71
2023-02-14T00:33:44.482Z,90.90
2023-02-14T00:34:45.891Z,90.96
2023-02-14T00:35:47.766Z,90.72
2023-02-14T00:36:50.159Z,91.12
2023-02-14T00:37:51.867Z,91.00
2023-02-14T00:38:54.652Z,90.80
2023-02-14T00:39:56.205Z,90.61
2023-02-14T00:40:58.272Z,90.70
2023-02-14T00:42:00.131Z,91.34
2023-02-14T00:43:01.742Z,91.55
2023-02-14T00:44:03.503Z,91.48
2023-02-14T00:45:05.227Z,91.40
2023-02-14T00:46:06.789Z,90.97
2023-02-14T00:47:08.590Z,91.21
2023-02-14T00:48:10.126Z,91.12
2023-02-14T00:49:12.789Z,91.08
2023-02-14T00:50:14.294Z,90.81
2023-02-14T00:51:17.750Z,91.21
2023-02-14T00:52:19.285Z,91.14
2023-02-14T00:53:20.803Z,91.41
2023-02-14T00:54:22.596Z,91.23
2023-02-14T00:55:24.069Z,91.56
2023-02-14T00:56:25.618Z,91.18
2023-02-14T00:57:27.082Z,91.17
2023-02-14T00:58:29.284Z,91.25
2023-02-14T00:59:31.029Z,91.29
2023-02-14T01:00:32.658Z,91.34
2023-02-14T01:01:34.732Z,91.37
2023-02-14T01:02:37.868Z,91.34
2023-02-14T01:03:39.640Z,91.21
2023-02-14T01:04:41.476Z,91.90
2023-02-14T01:05:43.108Z,91.76
2023-02-14T01:06:44.710Z,91.80
2023-02-14T01:07:47.920Z,91.68
2023-02-14T01:08:49.449Z,91.73
2023-02-14T01:09:51.137Z,91.44
2023-02-14T01:10:52.857Z,91.62
2023-02-14T01:11:54.473Z,91.84
2023-02-14T01:12:56.044Z,91.38
2023-02-14T01:13:58.187Z,91.64
2023-02-14T01:15:00.029Z,91.52
2023-02-14T01:16:07.007Z,91.99
2023-02-14T01:17:08.514Z,91.82
2023-02-14T01:18:10.661Z,92.03
2023-02-14T01:19:12.332Z,91.61
2023-02-14T01:20:14.223Z,91.87
2023-02-14T01:21:22.793Z,91.66
2023-02-14T01:22:24.338Z,92.59
2023-02-14T01:23:26.907Z,91.91
2023-02-14T01:24:28.359Z,92.01
2023-02-14T01:25:30.548Z,92.00
2023-02-14T01:26:34.763Z,91.80
2023-02-14T01:27:36.595Z,91.96
2023-02-14T01:28:38.853Z,91.95
2023-02-14T01:29:40.356Z,91.92
2023-02-14T01:30:42.082Z,92.04
2023-02-14T01:31:44.752Z,91.97
2023-02-14T01:32:46.813Z,92.06
2023-02-14T01:33:49.182Z,92.19
2023-02-14T01:34:50.998Z,91.88
2023-02-14T01:35:52.552Z,92.07
2023-02-14T01:36:55.251Z,92.18
2023-02-14T01:37:56.838Z,92.08
2023-02-14T01:39:07.027Z,91.90
2023-02-14T01:40:13.740Z,92.01
2023-02-14T01:41:18.428Z,91.77
2023-02-14T01:42:20.014Z,92.20
2023-02-14T01:43:22.410Z,92.02
2023-02-14T01:44:36.485Z,91.76
2023-02-14T01:45:37.987Z,92.20
2023-02-14T01:46:41.675Z,92.17
2023-02-14T01:47:45.614Z,92.10
2023-02-14T01:48:48.135Z,92.11
2023-02-14T01:49:55.210Z,92.41
2023-02-14T01:50:57.055Z,92.05
2023-02-14T01:52:09.836Z,92.06
2023-02-14T01:53:18.363Z,92.40
2023-02-14T01:54:24.127Z,92.24
2023-02-14T01:55:29.662Z,92.28
2023-02-14T01:56:43.114Z,92.18
2023-02-14T01:57:58.796Z,91.84
2023-02-14T01:59:04.707Z,92.14
2023-02-14T02:00:26.458Z,92.53
2023-02-14T02:01:29.832Z,92.23
2023-02-14T02:02:31.489Z,92.33
2023-02-14T02:03:40.939Z,92.54
2023-02-14T02:04:46.499Z,92.40
2023-02-14T02:05:52.236Z,92.31
2023-02-14T02:07:01.033Z,92.30
2023-02-14T02:08:03.667Z,92.25
2023-02-14T02:09:12.455Z,91.79
2023-02-14T02:10:13.955Z,92.31
2023-02-14T02:11:16.420Z,92.33
2023-02-14T02:12:18.142Z,92.49
2023-02-14T02:13:22.112Z,92.18
2023-02-14T02:14:24.128Z,92.63
2023-02-14T02:15:26.891Z,93.09
2023-02-14T02:16:46.964Z,92.37
2023-02-14T02:17:52.497Z,92.77
2023-02-14T02:19:23.678Z,92.72
2023-02-14T02:20:57.360Z,92.54
2023-02-14T02:22:05.301Z,92.54
2023-02-14T02:23:28.713Z,92.84
2023-02-14T02:24:53.357Z,92.97
2023-02-14T02:26:10.217Z,92.51
2023-02-14T02:27:20.930Z,92.99
2023-02-14T02:28:55.714Z,92.70
2023-02-14T02:30:10.873Z,93.11
2023-02-14T02:32:28.217Z,92.74
2023-02-14T02:33:35.563Z,92.73
2023-02-14T02:35:04.947Z,92.93
2023-02-14T02:36:18.769Z,92.34
2023-02-14T02:37:42.308Z,92.36
2023-02-14T02:39:08.936Z,92.58
2023-02-14T02:40:24.298Z,92.92
2023-02-14T02:42:21.195Z,92.76
2023-02-14T02:43:45.518Z,92.83
2023-02-14T02:44:50.187Z,92.86
2023-02-14T02:46:22.293Z,92.91
2023-02-14T02:47:43.662Z,92.67
2023-02-14T02:48:59.181Z,92.65
2023-02-14T02:50:59.109Z,92.92
2023-02-14T02:52:22.585Z,92.81
2023-02-14T02:53:45.796Z,92.78
2023-02-14T02:54:58.326Z,92.63
2023-02-14T02:56:30.099Z,92.73
2023-02-14T02:57:37.862Z,92.54
2023-02-14T02:58:45.905Z,92.40
2023-02-14T02:59:51.300Z,92.41
2023-02-14T03:00:54.694Z,92.89
2023-02-14T03:02:01.803Z,92.82
2023-02-14T03:03:23.080Z,92.68
2023-02-14T03:04:45.098Z,93.18
2023-02-14T03:05:46.895Z,92.58
2023-02-14T03:06:50.430Z,92.83
2023-02-14T03:07:52.394Z,93.16
2023-02-14T03:08:53.990Z,93.22
2023-02-14T03:09:58.225Z,92.87
2023-02-14T03:11:02.392Z,92.90
2023-02-14T03:12:28.876Z,92.88
2023-02-14T03:14:00.495Z,92.86
2023-02-14T03:15:17.907Z,93.27
2023-02-14T03:16:32.588Z,93.35
2023-02-14T03:17:58.346Z,93.53
2023-02-14T03:19:00.477Z,93.51
2023-02-14T03:20:17.154Z,93.68
2023-02-14T03:21:36.631Z,93.48
2023-02-14T03:22:38.278Z,93.38
2023-02-14T03:24:08.877Z,93.48
2023-02-14T03:25:16.424Z,93.18
2023-02-14T03:26:44.171Z,93.86
2023-02-14T03:27:56.473Z,93.72
2023-02-14T03:29:31.068Z,93.37
2023-02-14T03:30:41.497Z,93.77
2023-02-14T03:31:50.480Z,93.79
2023-02-14T03:33:00.777Z,94.12
2023-02-14T03:34:11.674Z,94.13
2023-02-14T03:35:28.751Z,94.26
2023-02-14T03:36:54.677Z,94.13
2023-02-14T03:38:13.681Z,93.88
2023-02-14T03:39:27.296Z,94.02
2023-02-14T03:40:44.347Z,93.99
2023-02-14T03:41:53.243Z,94.59
2023-02-14T03:43:18.494Z,94.46
2023-02-14T03:44:25.205Z,94.79
2023-02-14T03:45:35.267Z,94.64
2023-02-14T03:46:43.824Z,94.29
2023-02-14T03:47:48.103Z,95.18
2023-02-14T03:48:52.966Z,94.59
2023-02-14T03:50:10.097Z,95.00
2023-02-14T03:51:14.070Z,94.55
2023-02-14T03:52:17.973Z,94.30
2023-02-14T03:53:25.339Z,94.54
2023-02-14T03:54:29.587Z,94.25
2023-02-14T03:55:39.757Z,94.06
2023-02-14T03:56:52.277Z,94.40
2023-02-14T03:58:15.929Z,94.20
2023-02-14T03:59:25.056Z,94.64
2023-02-14T04:00:30.702Z,94.50
2023-02-14T04:01:47.045Z,95.06
2023-02-14T04:02:54.519Z,94.99
2023-02-14T04:03:58.768Z,94.69
2023-02-14T04:05:03.502Z,95.01
2023-02-14T04:06:05.280Z,94.49
2023-02-14T04:07:18.164Z,94.45
2023-02-14T04:08:25.487Z,94.28
2023-02-14T04:09:27.271Z,94.21
2023-02-14T04:10:29.400Z,94.71
2023-02-14T04:11:35.229Z,94.90
2023-02-14T04:12:38.173Z,94.78
2023-02-14T04:13:40.354Z,95.26
2023-02-14T04:14:41.946Z,95.46
2023-02-14T04:15:44.620Z,95.18
2023-02-14T04:17:04.878Z,95.44
2023-02-14T04:18:25.143Z,95.60
2023-02-14T04:19:26.994Z,95.49
2023-02-14T04:20:29.045Z,95.08
2023-02-14T04:21:30.752Z,94.72
2023-02-14T04:22:32.254Z,95.44
2023-02-14T04:23:33.848Z,95.34
2023-02-14T04:24:35.388Z,95.17
2023-02-14T04:25:39.434Z,94.72
2023-02-14T04:26:53.292Z,94.83
2023-02-14T04:27:55.194Z,94.66
2023-02-14T04:28:56.693Z,94.84
2023-02-14T04:29:58.237Z,94.95
2023-02-14T04:31:06.006Z,94.88
2023-02-14T04:32:10.443Z,94.73
2023-02-14T04:33:12.077Z,95.26
2023-02-14T04:34:13.924Z,95.49
2023-02-14T04:35:15.408Z,95.24
2023-02-14T04:36:17.166Z,95.07
2023-02-14T04:37:19.514Z,94.98
2023-02-14T04:38:21.256Z,95.04
2023-02-14T04:39:22.851Z,95.70
2023-02-14T04:40:24.368Z,95.32
2023-02-14T04:41:26.376Z,95.21
2023-02-14T04:42:28.111Z,95.59
2023-02-14T04:43:29.744Z,94.83
2023-02-14T04:44:33.336Z,95.18
2023-02-14T04:45:34.906Z,95.24
2023-02-14T04:46:37.047Z,94.97
2023-02-14T04:47:39.186Z,94.84
2023-02-14T04:48:40.735Z,95.30
2023-02-14T04:49:42.267Z,95.10
2023-02-14T04:50:43.929Z,95.27
2023-02-14T04:51:46.869Z,95.17
2023-02-14T04:52:49.104Z,95.71
2023-02-14T04:53:50.650Z,95.26
2023-02-14T04:54:52.302Z,95.65
2023-02-14T04:55:53.943Z,95.36
2023-02-14T04:56:55.745Z,95.62
2023-02-14T04:57:57.405Z,95.32
2023-02-14T04:58:59.892Z,95.24
2023-02-14T05:00:01.967Z,94.99
2023-02-14T05:01:04.344Z,95.18
2023-02-14T05:02:06.166Z,95.07
2023-02-14T05:03:08.075Z,95.07
2023-02-14T05:04:10.056Z,95.18
2023-02-14T05:05:11.894Z,95.29
2023-02-14T05:06:13.410Z,95.26
2023-02-14T05:07:15.287Z,95.15
2023-02-14T05:08:16.875Z,95.06
2023-02-14T05:09:18.411Z,95.21
2023-02-14T05:10:19.996Z,95.09
2023-02-14T05:11:22.253Z,95.16
2023-02-14T05:12:24.092Z,95.26
2023-02-14T05:13:25.680Z,95.18
2023-02-14T05:14:27.487Z,95.36
2023-02-14T05:15:28.983Z,94.94
2023-02-14T05:16:30.820Z,95.27
2023-02-14T05:17:33.077Z,95.26
2023-02-14T05:18:34.668Z,95.02
2023-02-14T05:19:36.291Z,95.29
2023-02-14T05:20:37.771Z,95.32
2023-02-14T05:21:39.264Z,95.05
2023-02-14T05:22:40.923Z,95.51
2023-02-14T05:23:42.695Z,95.19
2023-02-14T05:24:44.190Z,96.26
2023-02-14T05:25:48.694Z,96.98
2023-02-14T05:26:50.175Z,96.15
2023-02-14T05:27:52.102Z,95.69
2023-02-14T05:28:53.820Z,95.13
2023-02-14T05:29:55.386Z,95.56
2023-02-14T05:30:58.066Z,95.57
2023-02-14T05:31:59.808Z,95.64
2023-02-14T05:33:01.562Z,95.69
2023-02-14T05:34:03.405Z,95.11
2023-02-14T05:35:05.457Z,95.46
2023-02-14T05:36:07.412Z,95.45
2023-02-14T05:37:08.964Z,95.58
2023-02-14T05:38:12.546Z,95.53
2023-02-14T05:39:14.290Z,95.53
2023-02-14T05:40:16.037Z,95.57
2023-02-14T05:41:18.180Z,95.60
2023-02-14T05:42:19.733Z,95.46
2023-02-14T05:43:21.781Z,95.82
2023-02-14T05:44:23.447Z,95.70
2023-02-14T05:45:25.336Z,95.55
2023-02-14T05:46:27.104Z,95.84
2023-02-14T05:47:28.584Z,95.29
2023-02-14T05:48:30.620Z,95.50
2023-02-14T05:49:32.177Z,95.73
2023-02-14T05:50:33.788Z,96.04
2023-02-14T05:51:35.340Z,95.92
2023-02-14T05:52:37.362Z,95.56
2023-02-14T05:53:39.275Z,95.69
2023-02-14T05:54:41.387Z,95.44
2023-02-14T05:55:42.899Z,95.51
2023-02-14T05:56:44.418Z,95.42
2023-02-14T05:57:46.531Z,95.40
2023-02-14T05:58:48.188Z,95.45
2023-02-14T05:59:49.899Z,95.22
2023-02-14T06:00:51.489Z,95.15
2023-02-14T06:01:53.048Z,95.04
2023-02-14T06:02:54.592Z,94.93
2023-02-14T06:03:56.349Z,95.44
2023-02-14T06:04:58.277Z,95.18
2023-02-14T06:05:59.773Z,95.40
2023-02-14T06:07:01.370Z,95.54
2023-02-14T06:08:03.056Z,95.06
2023-02-14T06:09:04.883Z,95.09
2023-02-14T06:10:09.173Z,95.05
2023-02-14T06:11:10.696Z,94.97
2023-02-14T06:12:12.259Z,95.00
2023-02-14T06:13:14.138Z,95.00
2023-02-14T06:14:15.989Z,95.53
2023-02-14T06:15:18.358Z,95.06
2023-02-14T06:16:19.912Z,95.02
2023-02-14T06:17:21.433Z,95.58
2023-02-14T06:18:26.749Z,95.26
2023-02-14T06:19:28.270Z,95.19
2023-02-14T06:20:30.521Z,95.10
2023-02-14T06:21:32.213Z,95.46
2023-02-14T06:22:33.818Z,95.16
2023-02-14T06:23:35.490Z,95.20
2023-02-14T06:24:37.232Z,95.36
2023-02-14T06:25:39.008Z,95.13
2023-02-14T06:26:40.680Z,95.21
2023-02-14T06:27:42.354Z,95.09
2023-02-14T06:28:43.999Z,95.18
2023-02-14T06:29:45.778Z,95.48
2023-02-14T06:30:47.699Z,95.48
2023-02-14T06:31:49.680Z,95.34
2023-02-14T06:32:51.242Z,95.51
2023-02-14T06:33:52.919Z,95.55
2023-02-14T06:34:54.419Z,95.77
2023-02-14T06:35:56.127Z,95.06
2023-02-14T06:36:57.521Z,95.45
2023-02-14T06:37:59.192Z,95.10
2023-02-14T06:39:00.941Z,95.17
2023-02-14T06:40:02.723Z,95.08
2023-02-14T06:41:06.530Z,95.11
2023-02-14T06:42:08.289Z,95.29
2023-02-14T06:43:09.927Z,95.08
2023-02-14T06:44:11.672Z,95.02
2023-02-14T06:45:13.334Z,95.35
2023-02-14T06:46:16.547Z,95.22
2023-02-14T06:47:18.083Z,95.64
2023-02-14T06:48:19.586Z,95.57
2023-02-14T06:49:21.047Z,95.37
2023-02-14T06:50:22.649Z,95.46
2023-02-14T06:51:24.383Z,95.68
2023-02-14T06:52:25.968Z,95.45
2023-02-14T06:53:27.636Z,95.39
2023-02-14T06:54:29.447Z,95.65
2023-02-14T06:55:31.296Z,95.44
2023-02-14T06:56:33.020Z,95.20
2023-02-14T06:57:34.483Z,95.23
2023-02-14T06:58:36.018Z,95.35
2023-02-14T06:59:37.947Z,95.28
2023-02-14T07:00:39.652Z,95.62
2023-02-14T07:01:41.372Z,95.32
2023-02-14T07:02:43.033Z,95.12
2023-02-14T07:03:44.680Z,95.00
2023-02-14T07:04:46.200Z,95.11
2023-02-14T07:05:47.671Z,95.36
2023-02-14T07:06:49.550Z,95.00
2023-02-14T07:07:51.255Z,95.32
2023-02-14T07:08:52.726Z,94.95
2023-02-14T07:09:54.389Z,95.46
2023-02-14T07:10:57.106Z,94.96
2023-02-14T07:11:59.081Z,95.29
2023-02-14T07:13:00.933Z,95.37
2023-02-14T07:14:02.458Z,95.16
2023-02-14T07:15:04.767Z,95.53
2023-02-14T07:16:06.634Z,95.47
2023-02-14T07:17:08.492Z,95.50
2023-02-14T07:18:10.955Z,95.26
2023-02-14T07:19:12.454Z,95.53
2023-02-14T07:20:14.012Z,95.13
2023-02-14T07:21:15.929Z,95.18
2023-02-14T07:22:17.558Z,95.28
2023-02-14T07:23:19.244Z,95.30
2023-02-14T07:24:21.636Z,95.18
2023-02-14T07:25:23.464Z,95.03
2023-02-14T07:26:25.182Z,95.17
2023-02-14T07:27:26.804Z,95.12
2023-02-14T07:28:29.739Z,95.47
2023-02-14T07:29:31.205Z,94.97
2023-02-14T07:30:32.819Z,95.18
2023-02-14T07:31:34.585Z,95.04
2023-02-14T07:32:37.342Z,95.06
2023-02-14T07:33:38.913Z,95.16
2023-02-14T07:34:40.553Z,94.92
2023-02-14T07:35:42.058Z,94.88
2023-02-14T07:36:43.636Z,94.67
2023-02-14T07:37:45.316Z,94.99
2023-02-14T07:38:46.738Z,94.76
2023-02-14T07:39:48.320Z,94.87
2023-02-14T07:40:53.011Z,94.61
2023-02-14T07:41:54.676Z,94.73
2023-02-14T07:42:57.540Z,94.78
2023-02-14T07:43:59.444Z,94.52
2023-02-14T07:45:06.961Z,94.93
2023-02-14T07:46:17.708Z,94.48
2023-02-14T07:47:19.399Z,94.58
2023-02-14T07:48:21.477Z,94.61
2023-02-14T07:49:22.932Z,94.58
2023-02-14T07:50:24.462Z,94.18
2023-02-14T07:51:26.058Z,94.50
2023-02-14T07:52:27.633Z,94.42
2023-02-14T07:53:29.437Z,94.42
2023-02-14T07:54:31.070Z,94.45
2023-02-14T07:55:32.605Z,94.41
2023-02-14T07:56:34.098Z,94.26
2023-02-14T07:57:35.748Z,94.28
2023-02-14T07:58:37.520Z,94.21
2023-02-14T07:59:39.014Z,94.14
2023-02-14T08:00:40.407Z,94.24
2023-02-14T08:01:42.475Z,94.20
2023-02-14T08:02:44.235Z,94.04
2023-02-14T08:03:48.824Z,93.75
2023-02-14T08:04:50.316Z,93.67
2023-02-14T08:05:56.361Z,93.54
2023-02-14T08:06:57.908Z,93.62
2023-02-14T08:07:59.665Z,93.74
2023-02-14T08:09:01.513Z,93.71
2023-02-14T08:10:03.337Z,93.23
2023-02-14T08:11:05.034Z,93.53
2023-02-14T08:12:25.380Z,93.57
2023-02-14T08:13:27.109Z,93.50
2023-02-14T08:14:28.805Z,93.36
2023-02-14T08:15:51.554Z,93.61
2023-02-14T08:16:53.419Z,93.39
2023-02-14T08:17:58.097Z,93.36
2023-02-14T08:19:00.565Z,93.16
2023-02-14T08:20:02.375Z,93.06
2023-02-14T08:21:06.377Z,92.88
2023-02-14T08:22:07.889Z,93.00
2023-02-14T08:23:09.682Z,92.71
2023-02-14T08:24:11.202Z,92.87
2023-02-14T08:25:12.948Z,92.80
2023-02-14T08:26:15.401Z,92.80
2023-02-14T08:27:16.936Z,92.61
2023-02-14T08:28:20.815Z,92.62
2023-02-14T08:29:22.627Z,92.11
2023-02-14T08:30:24.396Z,92.23
2023-02-14T08:31:35.787Z,92.41
2023-02-14T08:32:38.033Z,92.42
2023-02-14T08:33:39.745Z,92.26
2023-02-14T08:34:41.464Z,92.50
2023-02-14T08:35:43.321Z,92.57
2023-02-14T08:36:45.043Z,92.27
2023-02-14T08:37:46.832Z,92.14
2023-02-14T08:38:48.548Z,91.82
2023-02-14T08:39:50.248Z,91.74
2023-02-14T08:40:52.029Z,91.52
2023-02-14T08:41:53.560Z,91.47
2023-02-14T08:42:55.106Z,91.52
2023-02-14T08:43:56.659Z,91.45
2023-02-14T08:44:58.242Z,91.31
2023-02-14T08:46:01.191Z,91.71
2023-02-14T08:47:03.388Z,91.69
2023-02-14T08:48:07.819Z,91.81
2023-02-14T08:49:09.780Z,91.02
2023-02-14T08:50:15.403Z,90.99
2023-02-14T08:51:17.165Z,90.96
2023-02-14T08:52:18.742Z,91.08
2023-02-14T08:53:21.453Z,90.96
2023-02-14T08:54:22.922Z,90.61
2023-02-14T08:55:25.302Z,90.91
2023-02-14T08:56:26.901Z,90.72
2023-02-14T08:57:28.428Z,90.56
2023-02-14T08:58:30.922Z,90.71
2023-02-14T08:59:33.606Z,90.44
2023-02-14T09:00:35.280Z,90.24
2023-02-14T09:01:37.177Z,90.14
2023-02-14T09:02:38.738Z,90.48
2023-02-14T09:03:40.794Z,90.28
2023-02-14T09:04:42.327Z,90.42
2023-02-14T09:05:43.926Z,90.21
2023-02-14T09:06:45.599Z,90.33
2023-02-14T09:07:47.076Z,90.10
2023-02-14T09:08:48.841Z,89.94
2023-02-14T09:09:50.382Z,89.61
2023-02-14T09:10:52.015Z,89.67
2023-02-14T09:11:55.467Z,90.01
2023-02-14T09:12:57.029Z,89.95
2023-02-14T09:13:58.572Z,89.87
2023-02-14T09:15:00.119Z,89.43
2023-02-14T09:16:05.933Z,89.42
2023-02-14T09:17:07.680Z,88.96
2023-02-14T09:18:09.275Z,88.62
2023-02-14T09:19:10.908Z,88.69
2023-02-14T09:20:14.519Z,88.87
2023-02-14T09:21:22.076Z,88.72
2023-02-14T09:22:23.728Z,88.21
2023-02-14T09:23:25.330Z,88.45
2023-02-14T09:24:27.048Z,88.46
2023-02-14T09:25:28.622Z,88.30
2023-02-14T09:26:30.103Z,88.27
2023-02-14T09:27:31.824Z,88.18
2023-02-14T09:28:34.525Z,87.99
2023-02-14T09:29:36.234Z,87.78
2023-02-14T09:30:37.741Z,87.58
2023-02-14T09:31:39.613Z,87.57
2023-02-14T09:32:41.246Z,87.22
2023-02-14T09:33:44.093Z,87.10
2023-02-14T09:34:45.573Z,86.72
2023-02-14T09:35:47.205Z,86.64
2023-02-14T09:36:48.775Z,86.93
2023-02-14T09:37:50.809Z,87.04
2023-02-14T09:38:52.458Z,87.28
2023-02-14T09:39:53.924Z,87.72
2023-02-14T09:40:55.440Z,87.69
2023-02-14T09:42:03.688Z,87.88
2023-02-14T09:43:14.722Z,87.71
2023-02-14T09:44:25.675Z,87.35
2023-02-14T09:45:29.314Z,87.43
2023-02-14T09:46:42.308Z,86.92
2023-02-14T09:47:55.869Z,86.93
2023-02-14T09:48:57.952Z,86.52
2023-02-14T09:50:00.904Z,87.17
2023-02-14T09:51:04.568Z,87.40
2023-02-14T09:52:12.168Z,87.26
2023-02-14T09:53:29.519Z,86.73
2023-02-14T09:54:34.154Z,87.03
2023-02-14T09:55:45.838Z,86.97
2023-02-14T09:57:01.430Z,86.74
2023-02-14T09:58:18.531Z,86.80
2023-02-14T09:59:30.179Z,86.75
2023-02-14T10:00:37.439Z,86.65
2023-02-14T10:01:45.362Z,86.60
2023-02-14T10:03:05.570Z,86.08
2023-02-14T10:04:30.343Z,84.87
2023-02-14T10:05:42.151Z,84.96
2023-02-14T10:07:26.450Z,84.87
2023-02-14T10:08:55.053Z,85.61
2023-02-14T10:10:11.299Z,84.68
2023-02-14T10:11:17.220Z,84.26
2023-02-14T10:12:34.907Z,84.77
2023-02-14T10:13:46.249Z,84.95
2023-02-14T10:14:49.650Z,85.25
2023-02-14T10:16:01.571Z,85.67
2023-02-14T10:17:13.131Z,85.32
2023-02-14T10:18:20.841Z,85.02
2023-02-14T10:19:31.142Z,84.69
2023-02-14T10:20:41.018Z,85.05
2023-02-14T10:22:04.794Z,84.93
2023-02-14T10:23:21.884Z,85.16
2023-02-14T10:24:37.785Z,84.67
2023-02-14T10:25:48.010Z,84.18
2023-02-14T10:26:52.204Z,83.59
2023-02-14T10:27:57.700Z,84.22
2023-02-14T10:28:59.266Z,84.24
2023-02-14T10:30:02.756Z,84.36
2023-02-14T10:31:14.244Z,84.32
2023-02-14T10:32:25.167Z,83.80
2023-02-14T10:33:32.791Z,82.83
2023-02-14T10:34:48.393Z,82.22
2023-02-14T10:35:55.342Z,82.11
2023-02-14T10:37:14.870Z,82.12
2023-02-14T10:38:42.135Z,82.43
2023-02-14T10:40:21.164Z,82.23
2023-02-14T10:41:49.033Z,82.77
2023-02-14T10:43:15.634Z,82.52
2023-02-14T10:44:41.033Z,82.46
2023-02-14T10:46:06.108Z,82.87
2023-02-14T10:47:35.931Z,82.96
2023-02-14T10:49:02.578Z,82.44
2023-02-14T10:50:29.921Z,82.38
2023-02-14T10:51:41.938Z,82.89
2023-02-14T10:53:13.413Z,82.52
2023-02-14T10:54:25.578Z,82.51
2023-02-14T10:55:43.493Z,82.78
2023-02-14T10:56:52.845Z,82.59
2023-02-14T10:57:56.087Z,81.46
2023-02-14T10:59:02.045Z,81.38
2023-02-14T11:00:29.613Z,80.97
2023-02-14T11:01:33.108Z,80.39
2023-02-14T11:02:45.589Z,80.15
2023-02-14T11:04:10.934Z,80.28
2023-02-14T11:05:42.796Z,80.22
2023-02-14T11:06:48.522Z,80.37
2023-02-14T11:07:50.067Z,80.59
2023-02-14T11:08:51.695Z,80.54
2023-02-14T11:09:53.136Z,80.96
2023-02-14T11:11:17.783Z,80.48
2023-02-14T11:12:39.259Z,79.14
2023-02-14T11:13:41.723Z,79.62
2023-02-14T11:14:43.446Z,80.02
2023-02-14T11:15:50.105Z,80.53
2023-02-14T11:16:52.945Z,80.54
2023-02-14T11:18:25.137Z,80.03
2023-02-14T11:19:31.049Z,79.65
2023-02-14T11:20:32.969Z,79.97
2023-02-14T11:21:39.447Z,79.11
2023-02-14T11:22:41.263Z,78.75
2023-02-14T11:23:46.982Z,78.89
2023-02-14T11:24:48.660Z,79.14
2023-02-14T11:25:54.787Z,79.25
2023-02-14T11:27:09.238Z,79.24
2023-02-14T11:28:17.883Z,79.51
2023-02-14T11:29:34.567Z,78.80
2023-02-14T11:30:40.726Z,78.56
2023-02-14T11:31:42.785Z,78.77
2023-02-14T11:32:54.425Z,78.51
2023-02-14T11:33:57.300Z,77.54
2023-02-14T11:35:07.154Z,77.18
2023-02-14T11:36:14.418Z,77.24
2023-02-14T11:37:26.182Z,77.10
2023-02-14T11:38:35.131Z,77.89
2023-02-14T11:39:36.667Z,77.70
2023-02-14T11:40:39.873Z,77.29
2023-02-14T11:41:55.960Z,77.70
2023-02-14T11:43:19.838Z,77.48
2023-02-14T11:44:25.527Z,77.43
2023-02-14T11:45:27.145Z,77.36
2023-02-14T11:46:30.420Z,77.21
2023-02-14T11:47:42.452Z,76.40
2023-02-14T11:48:59.310Z,77.30
2023-02-14T11:50:05.411Z,75.70
2023-02-14T11:51:14.104Z,75.87
2023-02-14T11:52:19.054Z,75.52
2023-02-14T11:53:25.087Z,75.07
2023-02-14T11:54:38.416Z,74.84
2023-02-14T11:55:40.349Z,74.82
2023-02-14T11:57:04.783Z,73.44
2023-02-14T11:58:07.927Z,73.64
2023-02-14T11:59:20.314Z,73.38
2023-02-14T12:00:23.002Z,73.19
2023-02-14T12:01:31.659Z,71.44
2023-02-14T12:02:38.141Z,69.67
2023-02-14T12:03:46.634Z,71.29
2023-02-14T12:04:52.657Z,71.54
2023-02-14T12:05:59.772Z,71.26
2023-02-14T12:07:32.487Z,68.46
2023-02-14T12:08:36.959Z,69.25
2023-02-14T12:09:40.781Z,70.38
2023-02-14T12:10:42.276Z,69.11
2023-02-14T12:11:57.382Z,69.57
2023-02-14T12:13:07.930Z,70.29
2023-02-14T12:14:21.491Z,69.61
2023-02-14T12:15:23.461Z,68.99
2023-02-14T12:16:37.846Z,70.30
2023-02-14T12:17:43.868Z,70.34
2023-02-14T12:19:23.740Z,69.86
2023-02-14T12:20:48.597Z,69.60
2023-02-14T12:21:59.085Z,69.81
2023-02-14T12:23:23.545Z,69.37
2023-02-14T12:24:53.543Z,70.21
2023-02-14T12:26:10.063Z,70.41
2023-02-14T12:27:27.223Z,70.01
2023-02-14T12:28:40.718Z,69.22
2023-02-14T12:29:48.249Z,69.67
2023-02-14T12:30:49.935Z,68.36
2023-02-14T12:31:53.039Z,67.64
2023-02-14T12:32:58.427Z,66.64
2023-02-14T12:34:03.153Z,66.77
2023-02-14T12:35:16.867Z,67.28
2023-02-14T12:36:49.604Z,67.68
2023-02-14T12:38:05.812Z,68.45
2023-02-14T12:39:18.303Z,66.88
2023-02-14T12:40:21.184Z,66.90
2023-02-14T12:41:34.846Z,66.48
2023-02-14T12:42:59.916Z,65.94
2023-02-14T12:44:16.949Z,66.63
2023-02-14T12:45:30.594Z,65.32
2023-02-14T12:46:41.264Z,64.91
2023-02-14T12:48:06.066Z,63.97
2023-02-14T12:49:32.461Z,64.56
2023-02-14T12:51:03.908Z,65.33
2023-02-14T12:53:01.287Z,65.14
2023-02-14T12:54:14.768Z,65.76
2023-02-14T12:55:33.415Z,64.93
2023-02-14T12:56:54.210Z,64.02
2023-02-14T12:58:12.024Z,64.32
2023-02-14T12:59:39.994Z,63.83
2023-02-14T13:00:52.113Z,64.60
2023-02-14T13:02:31.306Z,62.61
2023-02-14T13:03:46.697Z,62.89
2023-02-14T13:04:57.207Z,62.45
2023-02-14T13:06:17.226Z,62.60
2023-02-14T13:07:37.018Z,62.22
2023-02-14T13:09:00.892Z,61.77
2023-02-14T13:10:09.699Z,62.34
2023-02-14T13:11:35.767Z,61.66
2023-02-14T13:12:55.172Z,61.51
2023-02-14T13:14:05.270Z,61.47
2023-02-14T13:15:19.983Z,60.02
2023-02-14T13:16:40.166Z,60.95
2023-02-14T13:17:52.341Z,60.50
2023-02-14T13:19:23.924Z,60.25
2023-02-14T13:20:40.708Z,60.45
2023-02-14T13:21:43.673Z,60.19
2023-02-14T13:22:48.261Z,60.50
2023-02-14T13:23:55.010Z,60.62
2023-02-14T13:25:00.732Z,60.85
2023-02-14T13:26:21.839Z,60.40
2023-02-14T13:27:33.292Z,60.80
2023-02-14T13:28:37.828Z,60.97
2023-02-14T13:30:11.972Z,60.97
2023-02-14T13:31:14.393Z,60.31
2023-02-14T13:32:20.807Z,60.85
2023-02-14T13:33:35.889Z,61.51
2023-02-14T13:34:47.940Z,61.60
2023-02-14T13:35:50.962Z,61.63
2023-02-14T13:36:54.865Z,61.96
2023-02-14T13:38:06.916Z,61.69
2023-02-14T13:39:17.929Z,61.10
2023-02-14T13:40:24.981Z,60.65
2023-02-14T13:41:28.156Z,60.39
2023-02-14T13:42:49.126Z,60.33
2023-02-14T13:43:56.372Z,60.94
2023-02-14T13:44:58.217Z,60.36
2023-02-14T13:45:59.947Z,61.16
2023-02-14T13:47:01.493Z,61.68
2023-02-14T13:48:09.176Z,61.42
2023-02-14T13:49:32.619Z,61.23
2023-02-14T13:50:38.369Z,60.14
2023-02-14T13:52:03.968Z,60.61
2023-02-14T13:53:11.673Z,59.92
2023-02-14T13:54:31.218Z,58.42
2023-02-14T13:55:35.690Z,58.28
2023-02-14T13:56:37.381Z,57.84
2023-02-14T13:57:40.730Z,57.69
2023-02-14T13:58:51.522Z,58.38
2023-02-14T14:00:14.931Z,58.36
2023-02-14T14:01:39.952Z,58.15
2023-02-14T14:02:59.976Z,57.58
2023-02-14T14:04:24.999Z,57.36
2023-02-14T14:05:29.903Z,57.77
2023-02-14T14:07:03.309Z,56.91
2023-02-14T14:08:17.299Z,57.94
2023-02-14T14:09:41.540Z,57.92
2023-02-14T14:10:45.893Z,57.56
2023-02-14T14:11:49.460Z,57.98
2023-02-14T14:12:52.435Z,57.78
2023-02-14T14:13:56.580Z,57.83
2023-02-14T14:15:04.220Z,58.00
2023-02-14T14:16:27.221Z,58.16
2023-02-14T14:17:28.762Z,58.11
2023-02-14T14:18:36.707Z,57.24
2023-02-14T14:19:40.033Z,57.29
2023-02-14T14:20:47.140Z,56.90
2023-02-14T14:22:04.980Z,57.24
2023-02-14T14:23:36.927Z,56.73
2023-02-14T14:24:40.424Z,56.91
2023-02-14T14:25:42.342Z,57.52
2023-02-14T14:27:20.249Z,57.81
2023-02-14T14:28:25.446Z,57.52